Time;durP1;ratioP1;P1;durP2;ratioP2;P2;SDS_P1;SDS_P2;PMS_P1;PMS_P2;Temp;Humidity;BMP_temperature;BMP_pressure;BME280_temperature;BME280_humidity;BME280_pressure;Samples;Min_cycle;Max_cycle;Signal;HPM_P1;HPM_P2
2024/04/06 00:02:06;;;;;;;6.18;2.78;;;;;;;;;;10569860;28;20040;-62
2024/04/06 00:07:08;;;;;;;14.00;2.85;;;;;;;;;;10569416;28;20130;-62
2024/04/06 00:12:08;;;;;;;13.73;2.88;;;;;;;;;;10565903;28;20043;-62
2024/04/06 00:17:09;;;;;;;4.43;2.92;;;;;;;;;;10534976;28;20059;-62
2024/04/06 00:22:11;;;;;;;8.23;2.53;;;;;;;;;;10546762;28;20040;-62
2024/04/06 00:27:11;;;;;;;5.18;2.53;;;;;;;;;;10546788;28;20040;-62
2024/04/06 00:32:12;;;;;;;7.00;2.85;;;;;;;;;;10546541;28;20024;-62
2024/04/06 00:37:13;;;;;;;5.47;2.60;;;;;;;;;;10567139;28;20103;-62
2024/04/06 00:42:13;;;;;;;5.50;2.40;;;;;;;;;;10560940;28;20031;-63
2024/04/06 00:47:14;;;;;;;5.57;2.45;;;;;;;;;;10557981;28;20471;-63
2024/04/06 00:52:14;;;;;;;4.35;2.53;;;;;;;;;;10560557;28;20026;-63
2024/04/06 00:57:15;;;;;;;6.68;3.08;;;;;;;;;;10568636;28;20153;-62
2024/04/06 01:02:16;;;;;;;2.50;2.30;;;;;;;;;;10577161;28;20471;-63
2024/04/06 01:07:17;;;;;;;8.07;3.10;;;;;;;;;;10576784;28;20027;-62
2024/04/06 01:12:17;;;;;;;2.38;2.15;;;;;;;;;;10576902;27;20046;-62
2024/04/06 01:17:18;;;;;;;4.00;2.10;;;;;;;;;;10575590;28;20069;-62
2024/04/06 01:22:19;;;;;;;6.47;2.55;;;;;;;;;;10564971;28;20114;-62
2024/04/06 01:27:19;;;;;;;2.75;2.10;;;;;;;;;;10574740;28;20055;-62
2024/04/06 01:32:20;;;;;;;3.95;2.40;;;;;;;;;;10574799;28;20031;-63
2024/04/06 01:37:20;;;;;;;3.80;2.05;;;;;;;;;;10576017;28;20035;-63
2024/04/06 01:42:21;;;;;;;7.00;2.40;;;;;;;;;;10575990;28;20031;-63
2024/04/06 01:47:21;;;;;;;4.63;2.08;;;;;;;;;;10575019;28;20073;-63
2024/04/06 01:52:22;;;;;;;4.72;2.30;;;;;;;;;;10573977;28;20031;-63
2024/04/06 01:57:22;;;;;;;5.30;2.45;;;;;;;;;;10566401;28;20158;-63
2024/04/06 02:02:23;;;;;;;4.13;1.90;;;;;;;;;;10562927;28;20487;-63
2024/04/06 02:07:24;;;;;;;6.05;2.47;;;;;;;;;;10555092;28;20467;-62
2024/04/06 02:12:24;;;;;;;2.45;2.00;;;;;;;;;;10568274;27;20108;-62
2024/04/06 02:17:25;;;;;;;7.72;2.40;;;;;;;;;;10570537;27;20394;-62
2024/04/06 02:22:25;;;;;;;4.82;1.63;;;;;;;;;;10552659;28;20039;-63
2024/04/06 02:27:26;;;;;;;2.67;2.13;;;;;;;;;;10557841;28;20055;-63
2024/04/06 02:32:27;;;;;;;8.27;2.00;;;;;;;;;;10559301;27;20027;-63
2024/04/06 02:37:27;;;;;;;4.22;2.10;;;;;;;;;;10559817;28;20036;-63
2024/04/06 02:42:28;;;;;;;4.53;2.85;;;;;;;;;;10547506;28;20084;-63
2024/04/06 02:47:28;;;;;;;2.22;1.60;;;;;;;;;;10556517;28;20023;-63
2024/04/06 02:52:29;;;;;;;3.92;2.10;;;;;;;;;;10569629;28;20024;-63
2024/04/06 02:57:29;;;;;;;2.80;1.88;;;;;;;;;;10571358;28;20031;-63
2024/04/06 03:02:30;;;;;;;2.83;2.08;;;;;;;;;;10572497;28;20023;-61
2024/04/06 03:07:31;;;;;;;6.07;2.00;;;;;;;;;;10559395;28;20084;-62
2024/04/06 03:12:32;;;;;;;4.00;2.05;;;;;;;;;;10570908;28;20466;-62
2024/04/06 03:17:32;;;;;;;2.13;1.90;;;;;;;;;;10561669;28;20043;-62
2024/04/06 03:22:33;;;;;;;4.68;2.20;;;;;;;;;;10545779;28;20039;-62
2024/04/06 03:27:33;;;;;;;3.15;1.80;;;;;;;;;;10565112;28;20020;-62
2024/04/06 03:32:34;;;;;;;2.28;2.05;;;;;;;;;;10570163;28;20034;-61
2024/04/06 03:37:34;;;;;;;2.35;1.90;;;;;;;;;;10563614;28;20024;-62
2024/04/06 03:42:35;;;;;;;3.70;2.00;;;;;;;;;;10554084;28;20027;-62
2024/04/06 03:47:37;;;;;;;3.08;1.85;;;;;;;;;;10561974;28;20028;-61
2024/04/06 03:52:37;;;;;;;2.58;2.05;;;;;;;;;;10566725;28;20390;-61
2024/04/06 03:57:38;;;;;;;2.38;1.70;;;;;;;;;;10558682;28;20027;-62
2024/04/06 04:02:39;;;;;;;2.00;1.90;;;;;;;;;;10554624;28;20038;-62
2024/04/06 04:07:39;;;;;;;4.70;1.77;;;;;;;;;;10551451;28;20027;-62
2024/04/06 04:12:40;;;;;;;5.57;2.00;;;;;;;;;;10554052;28;20031;-62
2024/04/06 04:17:40;;;;;;;2.75;1.83;;;;;;;;;;10564434;28;20101;-62
2024/04/06 04:22:41;;;;;;;5.28;2.10;;;;;;;;;;10554520;28;20056;-62
2024/04/06 04:27:42;;;;;;;4.03;1.85;;;;;;;;;;10556449;28;20027;-61
2024/04/06 04:32:42;;;;;;;2.92;2.17;;;;;;;;;;10558396;28;20089;-61
2024/04/06 04:37:43;;;;;;;4.28;1.98;;;;;;;;;;10570639;28;20192;-62
2024/04/06 04:42:43;;;;;;;3.38;1.90;;;;;;;;;;10572938;28;20034;-62
2024/04/06 04:47:44;;;;;;;2.40;1.88;;;;;;;;;;10566702;28;20039;-63
2024/04/06 04:52:44;;;;;;;3.53;2.30;;;;;;;;;;10570794;27;20023;-62
2024/04/06 04:57:45;;;;;;;2.78;2.00;;;;;;;;;;10579970;27;20027;-62
2024/04/06 05:02:45;;;;;;;3.17;1.90;;;;;;;;;;10575755;27;20042;-62
2024/04/06 05:07:46;;;;;;;4.00;1.88;;;;;;;;;;10569309;28;20039;-62
2024/04/06 05:12:46;;;;;;;3.40;1.80;;;;;;;;;;10568852;28;20036;-62
2024/04/06 05:17:47;;;;;;;2.45;1.70;;;;;;;;;;10563731;28;20031;-62
2024/04/06 05:22:48;;;;;;;4.18;1.88;;;;;;;;;;10559659;28;20038;-62
2024/04/06 05:27:48;;;;;;;2.30;1.88;;;;;;;;;;10571208;28;20085;-62
2024/04/06 05:32:49;;;;;;;4.40;1.70;;;;;;;;;;10552110;28;20035;-63
2024/04/06 05:37:49;;;;;;;3.30;1.80;;;;;;;;;;10569632;28;20016;-63
2024/04/06 05:42:50;;;;;;;5.00;2.10;;;;;;;;;;10572696;28;20031;-63
2024/04/06 05:47:50;;;;;;;3.30;1.73;;;;;;;;;;10570874;28;20042;-62
2024/04/06 05:52:51;;;;;;;2.88;1.60;;;;;;;;;;10568586;28;20047;-62
2024/04/06 05:57:52;;;;;;;4.78;1.95;;;;;;;;;;10555297;28;20437;-63
2024/04/06 06:02:55;;;;;;;4.00;2.05;;;;;;;;;;10568492;28;20034;-62
2024/04/06 06:07:56;;;;;;;9.18;2.08;;;;;;;;;;10564366;28;20408;-62
2024/04/06 06:12:57;;;;;;;3.67;1.60;;;;;;;;;;10555593;28;20036;-63
2024/04/06 06:17:57;;;;;;;6.78;2.20;;;;;;;;;;10545273;28;20104;-63
2024/04/06 06:22:58;;;;;;;18.98;1.65;;;;;;;;;;10555538;27;20032;-62
2024/04/06 06:27:58;;;;;;;5.60;1.80;;;;;;;;;;10563037;28;20024;-62
2024/04/06 06:32:59;;;;;;;2.03;1.67;;;;;;;;;;10572273;28;20031;-62
2024/04/06 06:38:00;;;;;;;5.10;1.83;;;;;;;;;;10560312;28;20039;-62
2024/04/06 06:43:00;;;;;;;7.90;1.92;;;;;;;;;;10573488;28;20068;-62
2024/04/06 06:48:01;;;;;;;2.03;1.35;;;;;;;;;;10559563;28;20032;-62
2024/04/06 06:53:02;;;;;;;4.63;1.70;;;;;;;;;;10558991;28;20016;-62
2024/04/06 06:58:03;;;;;;;3.17;1.83;;;;;;;;;;10571889;28;20491;-62
2024/04/06 07:03:04;;;;;;;2.80;1.70;;;;;;;;;;10558746;28;20125;-62
2024/04/06 07:08:05;;;;;;;10.57;1.88;;;;;;;;;;10553463;28;20050;-63
2024/04/06 07:13:06;;;;;;;2.10;1.42;;;;;;;;;;10558579;28;20126;-62
2024/04/06 07:18:06;;;;;;;2.22;1.75;;;;;;;;;;10544709;28;20494;-63
2024/04/06 07:23:07;;;;;;;3.67;1.60;;;;;;;;;;10541278;28;20047;-63
2024/04/06 07:28:07;;;;;;;2.00;1.80;;;;;;;;;;10540881;28;20036;-63
2024/04/06 07:33:08;;;;;;;3.40;1.60;;;;;;;;;;10536134;28;20032;-63
2024/04/06 07:38:09;;;;;;;4.85;1.60;;;;;;;;;;10534492;28;20028;-63
2024/04/06 07:43:09;;;;;;;1.83;1.52;;;;;;;;;;10534349;28;20080;-63
2024/04/06 07:48:10;;;;;;;3.60;1.60;;;;;;;;;;10533596;28;20035;-63
2024/04/06 07:53:11;;;;;;;3.10;1.98;;;;;;;;;;10535093;28;20054;-63
2024/04/06 07:58:12;;;;;;;3.25;1.88;;;;;;;;;;10534432;28;20391;-64
2024/04/06 08:03:12;;;;;;;2.35;1.60;;;;;;;;;;10533291;28;20043;-63
2024/04/06 08:08:13;;;;;;;1.60;1.50;;;;;;;;;;10540257;28;20081;-62
2024/04/06 08:13:14;;;;;;;2.10;1.70;;;;;;;;;;10533964;28;20020;-62
2024/04/06 08:18:15;;;;;;;2.65;1.90;;;;;;;;;;10532609;28;20039;-62
2024/04/06 08:23:17;;;;;;;1.90;1.80;;;;;;;;;;10539499;28;20439;-62
2024/04/06 08:28:18;;;;;;;2.25;1.80;;;;;;;;;;10568966;28;20028;-62
2024/04/06 08:33:19;;;;;;;2.38;1.80;;;;;;;;;;10563181;28;20086;-62
2024/04/06 08:38:19;;;;;;;1.92;1.73;;;;;;;;;;10557216;28;20490;-62
2024/04/06 08:43:25;;;;;;;3.88;1.67;;;;;;;;;;10561731;28;20045;-62
2024/04/06 08:48:28;;;;;;;7.97;2.00;;;;;;;;;;10560895;28;20028;-62
2024/04/06 08:53:29;;;;;;;3.80;1.65;;;;;;;;;;10542586;28;20104;-61
2024/04/06 08:58:30;;;;;;;3.45;2.40;;;;;;;;;;10543529;28;20459;-61
2024/04/06 09:03:34;;;;;;;4.60;1.80;;;;;;;;;;10534390;28;20132;-61
2024/04/06 09:08:37;;;;;;;2.85;2.00;;;;;;;;;;10538293;28;20048;-61
2024/04/06 09:13:44;;;;;;;1.88;1.67;;;;;;;;;;10539753;28;20437;-61
2024/04/06 09:18:45;;;;;;;1.65;1.50;;;;;;;;;;10551232;28;20020;-61
2024/04/06 09:23:50;;;;;;;2.70;1.80;;;;;;;;;;10548355;27;20399;-61
2024/04/06 09:28:52;;;;;;;2.47;1.83;;;;;;;;;;10575924;28;20019;-61
2024/04/06 09:33:56;;;;;;;2.50;2.00;;;;;;;;;;10573968;28;20088;-61
2024/04/06 09:38:58;;;;;;;4.18;1.73;;;;;;;;;;10572653;27;20466;-61
2024/04/06 09:44:01;;;;;;;2.17;1.83;;;;;;;;;;10583211;27;20386;-62
2024/04/06 09:49:04;;;;;;;4.47;1.52;;;;;;;;;;10572307;27;20367;-61
2024/04/06 09:54:05;;;;;;;2.63;2.00;;;;;;;;;;10572873;27;20162;-61
2024/04/06 09:59:06;;;;;;;1.77;1.63;;;;;;;;;;10577762;27;20034;-61
2024/04/06 10:04:26;;;;;;;8.57;1.75;;;;;;;;;;10597107;27;20023;-62
2024/04/06 10:09:35;;;;;;;1.73;1.63;;;;;;;;;;10584101;27;20055;-62
2024/04/06 10:14:44;;;;;;;4.72;1.85;;;;;;;;;;10561151;28;20028;-62
2024/04/06 10:19:45;;;;;;;4.13;1.90;;;;;;;;;;10553701;28;20480;-62
2024/04/06 10:24:54;;;;;;;12.43;7.38;;;;;;;;;;10545120;28;20032;-64
2024/04/06 10:29:56;;;;;;;13.88;7.30;;;;;;;;;;10550362;28;20096;-64
2024/04/06 10:35:00;;;;;;;14.55;7.82;;;;;;;;;;10552604;28;20020;-63
2024/04/06 10:40:01;;;;;;;18.25;9.05;;;;;;;;;;10544605;28;20028;-63
2024/04/06 10:45:02;;;;;;;17.75;10.02;;;;;;;;;;10562214;28;20107;-64
2024/04/06 10:50:06;;;;;;;19.73;10.48;;;;;;;;;;10560518;28;20024;-63
2024/04/06 10:55:10;;;;;;;16.98;10.45;;;;;;;;;;10561646;28;20173;-63
2024/04/06 11:00:16;;;;;;;17.80;10.00;;;;;;;;;;10568773;28;20434;-64
2024/04/06 11:05:17;;;;;;;18.00;10.95;;;;;;;;;;10569719;28;20063;-63
2024/04/06 11:10:18;;;;;;;16.77;9.65;;;;;;;;;;10558547;28;20043;-63
2024/04/06 11:15:23;;;;;;;18.52;11.00;;;;;;;;;;10550207;28;20395;-65
2024/04/06 11:20:24;;;;;;;17.02;9.20;;;;;;;;;;10567684;27;20059;-63
2024/04/06 11:25:26;;;;;;;18.17;9.82;;;;;;;;;;10547319;28;20497;-64
2024/04/06 11:30:28;;;;;;;12.77;9.60;;;;;;;;;;10565030;27;20464;-64
2024/04/06 11:35:31;;;;;;;15.00;8.75;;;;;;;;;;10569165;27;20035;-64
2024/04/06 11:40:32;;;;;;;21.38;9.52;;;;;;;;;;10556016;28;20039;-61
2024/04/06 11:45:33;;;;;;;16.20;8.90;;;;;;;;;;10552411;27;20518;-60
2024/04/06 11:50:33;;;;;;;15.40;8.27;;;;;;;;;;10545363;27;20040;-62
2024/04/06 11:55:36;;;;;;;15.23;8.27;;;;;;;;;;10529517;28;20027;-61
2024/04/06 12:00:37;;;;;;;14.27;7.25;;;;;;;;;;10547913;28;20028;-61
2024/04/06 12:05:38;;;;;;;17.33;7.22;;;;;;;;;;10546903;27;20032;-62
2024/04/06 12:10:39;;;;;;;11.93;6.95;;;;;;;;;;10561622;28;20040;-60
2024/04/06 12:15:41;;;;;;;14.98;7.28;;;;;;;;;;10558402;28;20351;-61
2024/04/06 12:20:42;;;;;;;12.75;6.97;;;;;;;;;;10535357;28;20054;-61
2024/04/06 12:25:42;;;;;;;12.60;6.95;;;;;;;;;;10550111;28;20031;-61
2024/04/06 12:30:43;;;;;;;14.90;7.28;;;;;;;;;;10558182;28;20024;-62
2024/04/06 12:35:48;;;;;;;14.35;7.80;;;;;;;;;;10547396;28;20019;-61
2024/04/06 12:40:49;;;;;;;15.80;7.55;;;;;;;;;;10545362;28;20042;-60
2024/04/06 12:45:49;;;;;;;10.32;6.45;;;;;;;;;;10556466;28;20024;-60
2024/04/06 12:50:50;;;;;;;12.20;7.07;;;;;;;;;;10552743;28;20481;-60
2024/04/06 12:55:52;;;;;;;13.77;6.68;;;;;;;;;;10557419;28;20621;-61
2024/04/06 13:00:52;;;;;;;15.52;7.28;;;;;;;;;;10554335;28;20035;-60
2024/04/06 13:05:53;;;;;;;15.25;6.85;;;;;;;;;;10546212;28;20036;-60
2024/04/06 13:10:53;;;;;;;11.10;7.22;;;;;;;;;;10549241;27;20410;-60
2024/04/06 13:15:54;;;;;;;12.70;6.75;;;;;;;;;;10555395;28;20039;-60
2024/04/06 13:20:55;;;;;;;15.25;7.63;;;;;;;;;;10561603;28;20080;-60
2024/04/06 13:25:55;;;;;;;12.77;6.68;;;;;;;;;;10561835;28;20019;-60
2024/04/06 13:30:56;;;;;;;9.77;6.88;;;;;;;;;;10566205;28;20027;-61
2024/04/06 13:35:56;;;;;;;15.82;7.28;;;;;;;;;;10573200;28;20031;-60
2024/04/06 13:40:57;;;;;;;9.00;6.78;;;;;;;;;;10562162;28;20032;-60
2024/04/06 13:45:58;;;;;;;10.00;6.40;;;;;;;;;;10561326;28;20028;-60
2024/04/06 13:50:58;;;;;;;14.73;6.70;;;;;;;;;;10569895;28;20011;-60
2024/04/06 13:55:59;;;;;;;12.70;6.15;;;;;;;;;;10573277;28;20039;-60
2024/04/06 14:01:00;;;;;;;11.68;6.38;;;;;;;;;;10567995;28;20030;-61
2024/04/06 14:06:03;;;;;;;9.13;5.43;;;;;;;;;;10571622;28;20036;-60
2024/04/06 14:11:04;;;;;;;8.60;5.82;;;;;;;;;;10562847;28;20088;-60
2024/04/06 14:16:05;;;;;;;10.75;5.90;;;;;;;;;;10557864;28;20034;-60
2024/04/06 14:21:05;;;;;;;10.35;5.18;;;;;;;;;;10570126;28;20028;-61
2024/04/06 14:26:07;;;;;;;8.80;5.30;;;;;;;;;;10550830;28;20023;-61
2024/04/06 14:31:07;;;;;;;9.07;6.05;;;;;;;;;;10559186;28;20098;-61
2024/04/06 14:36:08;;;;;;;11.40;5.78;;;;;;;;;;10560819;28;20059;-60
2024/04/06 14:41:09;;;;;;;11.38;5.10;;;;;;;;;;10572595;28;20027;-60
2024/04/06 14:46:10;;;;;;;8.32;5.32;;;;;;;;;;10573195;27;20032;-60
2024/04/06 14:51:10;;;;;;;8.90;5.25;;;;;;;;;;10560267;28;20061;-61
2024/04/06 14:56:11;;;;;;;10.05;5.40;;;;;;;;;;10570011;28;20611;-61
2024/04/06 15:01:12;;;;;;;11.05;5.07;;;;;;;;;;10571751;28;20107;-62
2024/04/06 15:06:13;;;;;;;7.90;4.72;;;;;;;;;;10551718;28;20120;-62
2024/04/06 15:11:14;;;;;;;9.35;5.20;;;;;;;;;;10560153;28;20126;-61
2024/04/06 15:16:14;;;;;;;8.95;4.63;;;;;;;;;;10557886;28;20435;-62
2024/04/06 15:21:15;;;;;;;6.20;4.68;;;;;;;;;;10537357;28;20028;-61
2024/04/06 15:26:16;;;;;;;6.85;4.95;;;;;;;;;;10552625;28;20040;-62
2024/04/06 15:31:16;;;;;;;12.88;4.85;;;;;;;;;;10536865;28;20024;-62
2024/04/06 15:36:17;;;;;;;10.25;4.90;;;;;;;;;;10558616;27;20020;-61
2024/04/06 15:41:18;;;;;;;8.50;4.78;;;;;;;;;;10555402;28;20039;-62
2024/04/06 15:46:19;;;;;;;5.40;4.20;;;;;;;;;;10569255;28;20356;-62
2024/04/06 15:51:20;;;;;;;10.50;4.72;;;;;;;;;;10554701;28;20024;-61
2024/04/06 15:56:21;;;;;;;8.00;4.78;;;;;;;;;;10551112;28;20538;-61
2024/04/06 16:01:22;;;;;;;7.32;4.70;;;;;;;;;;10551133;28;20368;-61
2024/04/06 16:06:23;;;;;;;7.57;4.57;;;;;;;;;;10563888;28;20497;-61
2024/04/06 16:11:24;;;;;;;8.45;4.53;;;;;;;;;;10552782;28;20127;-61
2024/04/06 16:16:25;;;;;;;8.50;4.88;;;;;;;;;;10568426;28;20027;-60
2024/04/06 16:21:27;;;;;;;13.00;4.75;;;;;;;;;;10563287;28;20032;-60
2024/04/06 16:26:27;;;;;;;6.22;4.43;;;;;;;;;;10531016;28;20035;-61
2024/04/06 16:31:28;;;;;;;9.02;4.63;;;;;;;;;;10552507;28;20427;-61
2024/04/06 16:36:30;;;;;;;6.03;4.65;;;;;;;;;;10550112;28;20020;-61
2024/04/06 16:41:31;;;;;;;7.20;4.28;;;;;;;;;;10563459;28;20122;-61
2024/04/06 16:46:32;;;;;;;6.93;4.95;;;;;;;;;;10565058;28;20110;-60
2024/04/06 16:51:32;;;;;;;6.95;4.70;;;;;;;;;;10564949;28;20027;-61
2024/04/06 16:56:33;;;;;;;6.80;4.15;;;;;;;;;;10544792;28;20032;-60
2024/04/06 17:01:34;;;;;;;5.85;4.30;;;;;;;;;;10568600;28;20040;-60
2024/04/06 17:06:34;;;;;;;5.43;4.57;;;;;;;;;;10572159;28;20031;-60
2024/04/06 17:11:35;;;;;;;5.78;4.20;;;;;;;;;;10569550;28;20043;-60
2024/04/06 17:16:35;;;;;;;5.18;4.20;;;;;;;;;;10568791;28;20489;-60
2024/04/06 17:21:36;;;;;;;8.18;4.75;;;;;;;;;;10561902;28;20024;-60
2024/04/06 17:26:37;;;;;;;7.30;4.85;;;;;;;;;;10557665;28;20027;-60
2024/04/06 17:31:37;;;;;;;6.72;4.10;;;;;;;;;;10566134;28;20046;-60
2024/04/06 17:36:38;;;;;;;8.98;5.30;;;;;;;;;;10561753;27;20024;-61
2024/04/06 17:41:39;;;;;;;8.45;4.68;;;;;;;;;;10541945;28;20118;-61
2024/04/06 17:46:39;;;;;;;13.77;4.40;;;;;;;;;;10549871;28;20032;-61
2024/04/06 17:51:40;;;;;;;13.63;4.57;;;;;;;;;;10536382;28;20030;-61
2024/04/06 17:56:41;;;;;;;10.75;4.40;;;;;;;;;;10540357;28;20032;-61
2024/04/06 18:01:41;;;;;;;6.43;4.75;;;;;;;;;;10541135;28;20561;-61
2024/04/06 18:06:42;;;;;;;6.85;3.97;;;;;;;;;;10541369;28;20039;-61
2024/04/06 18:11:42;;;;;;;7.57;5.00;;;;;;;;;;10538571;28;20052;-61
2024/04/06 18:16:43;;;;;;;8.73;4.80;;;;;;;;;;10539099;28;20024;-61
2024/04/06 18:21:44;;;;;;;6.82;4.95;;;;;;;;;;10546196;28;20027;-61
2024/04/06 18:26:45;;;;;;;8.13;5.07;;;;;;;;;;10536230;28;20030;-61
2024/04/06 18:31:46;;;;;;;9.32;5.65;;;;;;;;;;10539790;28;20489;-61
2024/04/06 18:36:46;;;;;;;6.72;5.25;;;;;;;;;;10542881;28;20031;-61
2024/04/06 18:41:47;;;;;;;8.88;5.72;;;;;;;;;;10540918;28;20028;-61
2024/04/06 18:46:47;;;;;;;8.85;6.00;;;;;;;;;;10538022;28;20062;-60
2024/04/06 18:51:48;;;;;;;8.80;6.00;;;;;;;;;;10542952;28;20574;-61
2024/04/06 18:56:49;;;;;;;13.90;6.50;;;;;;;;;;10543800;28;20390;-61
2024/04/06 19:01:50;;;;;;;16.33;6.82;;;;;;;;;;10537159;28;20043;-60
2024/04/06 19:06:50;;;;;;;13.10;5.63;;;;;;;;;;10545966;28;20479;-60
2024/04/06 19:11:53;;;;;;;8.98;5.63;;;;;;;;;;10537088;27;20040;-59
2024/04/06 19:16:54;;;;;;;11.63;6.22;;;;;;;;;;10552904;28;20038;-60
2024/04/06 19:21:55;;;;;;;14.93;6.82;;;;;;;;;;10544121;28;20024;-59
2024/04/06 19:26:55;;;;;;;9.82;6.03;;;;;;;;;;10541705;28;20027;-60
2024/04/06 19:31:56;;;;;;;11.15;6.32;;;;;;;;;;10540611;28;20035;-59
2024/04/06 19:36:57;;;;;;;11.07;6.07;;;;;;;;;;10552894;28;20077;-60
2024/04/06 19:41:57;;;;;;;11.23;5.97;;;;;;;;;;10544395;28;20040;-61
2024/04/06 19:46:58;;;;;;;11.27;5.35;;;;;;;;;;10541461;28;20356;-61
2024/04/06 19:51:59;;;;;;;14.40;5.78;;;;;;;;;;10555283;28;20020;-61
2024/04/06 19:56:59;;;;;;;8.27;5.18;;;;;;;;;;10542948;28;20398;-61
2024/04/06 20:02:00;;;;;;;12.40;5.50;;;;;;;;;;10544984;28;20028;-61
2024/04/06 20:07:01;;;;;;;5.70;4.38;;;;;;;;;;10544439;28;20032;-61
2024/04/06 20:12:01;;;;;;;11.80;5.03;;;;;;;;;;10533271;28;20426;-61
2024/04/06 20:17:02;;;;;;;6.07;4.05;;;;;;;;;;10544884;28;20024;-61
2024/04/06 20:27:24;;;;;;;7.55;5.00;;;;;;;;;;10564204;28;20031;-61
2024/04/06 20:32:25;;;;;;;11.63;4.95;;;;;;;;;;10556899;28;20031;-60
2024/04/06 20:37:25;;;;;;;8.55;5.47;;;;;;;;;;10550410;28;20031;-60
2024/04/06 20:42:26;;;;;;;9.70;4.93;;;;;;;;;;10539084;28;20050;-60
2024/04/06 20:47:27;;;;;;;12.60;5.43;;;;;;;;;;10551116;28;20020;-61
2024/04/06 20:52:29;;;;;;;10.00;5.10;;;;;;;;;;10555456;28;20067;-61
2024/04/06 20:57:29;;;;;;;5.75;4.18;;;;;;;;;;10546765;28;20047;-61
2024/04/06 21:02:30;;;;;;;11.02;4.40;;;;;;;;;;10539037;28;20418;-61
2024/04/06 21:07:36;;;;;;;8.02;4.75;;;;;;;;;;10543313;28;20030;-60
2024/04/06 21:12:37;;;;;;;9.73;4.80;;;;;;;;;;10556062;28;20045;-61
2024/04/06 21:17:38;;;;;;;6.47;4.10;;;;;;;;;;10559426;28;20433;-59
2024/04/06 21:22:39;;;;;;;8.75;4.10;;;;;;;;;;10543368;28;20085;-59
2024/04/06 21:27:48;;;;;;;9.60;4.65;;;;;;;;;;10547855;27;20031;-59
2024/04/06 21:32:49;;;;;;;7.32;4.95;;;;;;;;;;10555844;28;20387;-59
2024/04/06 21:37:50;;;;;;;7.30;4.15;;;;;;;;;;10557208;27;20130;-59
2024/04/06 21:42:50;;;;;;;7.90;4.43;;;;;;;;;;10543755;28;20506;-59
2024/04/06 21:47:51;;;;;;;10.25;4.60;;;;;;;;;;10543359;28;20031;-59
2024/04/06 21:52:51;;;;;;;10.18;4.30;;;;;;;;;;10547027;28;20036;-59
2024/04/06 21:57:52;;;;;;;8.65;4.40;;;;;;;;;;10558761;28;20035;-59
2024/04/06 22:02:52;;;;;;;7.18;4.22;;;;;;;;;;10552701;28;20055;-59
2024/04/06 22:07:53;;;;;;;5.22;3.75;;;;;;;;;;10546145;28;20028;-59
2024/04/06 22:12:54;;;;;;;7.10;4.43;;;;;;;;;;10551143;28;20047;-59
2024/04/06 22:17:55;;;;;;;12.23;5.25;;;;;;;;;;10547324;28;20028;-58
2024/04/06 22:22:58;;;;;;;7.47;4.70;;;;;;;;;;10546785;28;20031;-59
2024/04/06 22:27:58;;;;;;;7.68;4.75;;;;;;;;;;10551617;28;20058;-59
2024/04/06 22:32:59;;;;;;;7.70;4.25;;;;;;;;;;10561628;28;20055;-59
2024/04/06 22:37:59;;;;;;;6.40;4.03;;;;;;;;;;10546147;28;20101;-59
2024/04/06 22:43:00;;;;;;;5.93;4.30;;;;;;;;;;10533158;28;20036;-59
2024/04/06 22:48:01;;;;;;;5.65;3.90;;;;;;;;;;10542168;28;20387;-58
2024/04/06 22:53:02;;;;;;;6.97;3.70;;;;;;;;;;10545795;28;20023;-58
2024/04/06 22:58:05;;;;;;;6.55;3.92;;;;;;;;;;10546405;28;20024;-58
2024/04/06 23:03:05;;;;;;;9.10;4.05;;;;;;;;;;10540516;28;20085;-58
2024/04/06 23:08:06;;;;;;;5.18;3.85;;;;;;;;;;10541415;28;20372;-59
2024/04/06 23:13:07;;;;;;;6.97;4.05;;;;;;;;;;10543389;28;20048;-58
2024/04/06 23:18:07;;;;;;;6.47;4.25;;;;;;;;;;10547583;27;20036;-58
2024/04/06 23:23:08;;;;;;;6.72;3.33;;;;;;;;;;10547197;27;20089;-58
2024/04/06 23:28:10;;;;;;;6.60;4.43;;;;;;;;;;10554483;28;20630;-59
2024/04/06 23:33:11;;;;;;;5.50;3.78;;;;;;;;;;10561577;28;20068;-59
2024/04/06 23:38:12;;;;;;;7.88;3.90;;;;;;;;;;10556487;28;20108;-59
2024/04/06 23:43:13;;;;;;;5.25;3.63;;;;;;;;;;10541511;28;20043;-59
2024/04/06 23:48:14;;;;;;;5.30;3.90;;;;;;;;;;10552719;28;20039;-58
2024/04/06 23:53:16;;;;;;;5.82;4.03;;;;;;;;;;10554720;28;20410;-60
2024/04/06 23:58:17;;;;;;;5.90;3.95;;;;;;;;;;10549985;28;20024;-62
